Rosh Ha'ayin, Israel

10:31 AM IST on December 10, 2016 (GMT +0200)
Ashi Weather Station | | Change Station

Elev 161 ft 32.06 °N, 34.91 °E | Updated 4 minutes ago

Clear
Clear
65.1 °F
Feels Like 65.1 °F
N
0.0
Wind Variable Wind from SE
Gusts 0.0 mph

Today
High -- | Low -- °F
--% Chance of Precip.
Yesterday
High -- | Low -- °F
Precip. -- in
Pressure 30.21 in
Visibility 6.2 miles
Clouds Few 3000 ft
Dew Point 48 °F
Humidity 48%
Rainfall 0.00 in
Snow Depth Not available.
6:30 AM 4:35 PM
Waxing Gibbous, 81% visible
METAR LLBG 100820Z VRB01KT 9999 FEW030 18/06 Q1023 NOSIG
Pressure 30.21 in
Visibility 6.2 miles
Clouds Few 3000 ft
Dew Point 48 °F
Humidity 48%
Rainfall 0.00 in
Snow Depth Not available.
6:30 AM 4:35 PM
Waxing Gibbous, 81% visible
METAR LLBG 100820Z VRB01KT 9999 FEW030 18/06 Q1023 NOSIG

10-Day Weather Forecast

No radar image for this location.
×

Almanac

Astronomy

Dec. 10, 2016 Rise Set
Actual Time
Civil Twilight
Nautical Twilight
Astronomical Twilight
Moon
Length of Visible Light
Length of Day
Tomorrow will be .
, % of the Moon is Illuminated

Today's Extremes

Country Highs Country Lows

Community

WunderPhotos

Upload Photos

1,956,538 photos uploaded!

WunderBlog® & News

Nearby

Air Quality

  Air Quality AQ Index Pollutant
Not available.

Snow Depth

Station Depth Elevation

Earthquake Activity

City Distance Mag. Time & Date
Minimum magnitude displayed is 2.5.

Coastal Water Temperatures

Place Temperature

Stations

Nearby Weather Stations

Station Location Temp. Windchill Dew Point Humidity Wind Precip. Elev Updated Type